Time;durP1;ratioP1;P1;durP2;ratioP2;P2;SDS_P1;SDS_P2;PMS_P1;PMS_P2;Temp;Humidity;BMP_temperature;BMP_pressure;BME280_temperature;BME280_humidity;BME280_pressure;Samples;Min_cycle;Max_cycle;Signal;HPM_P1;HPM_P2
2022/08/07 00:01:31;;;;;;;;;;;;;;;;;;5091385;28;20019;-77
2022/08/07 00:03:57;;;;;;;;;;;;;;;;;;5101277;28;19967;-77
2022/08/07 00:06:24;;;;;;;;;;;;;;;;;;5100351;28;20306;-78
2022/08/07 00:08:51;;;;;;;;;;;;;;;;;;5100007;28;19963;-77
2022/08/07 00:11:18;;;;;;;;;;;;;;;;;;5099440;28;19970;-78
2022/08/07 00:13:46;;;;;;;;;;;;;;;;;;5095727;28;19924;-77
2022/08/07 00:16:14;;;;;;;;;;;;;;;;;;5094975;28;19939;-77
2022/08/07 00:18:41;;;;;;;;;;;;;;;;;;5095267;28;19977;-77
2022/08/07 00:21:08;;;;;;;;;;;;;;;;;;5094997;28;22272;-77
2022/08/07 00:23:36;;;;;;;;;;;;;;;;;;5097545;28;20015;-77
2022/08/07 00:26:03;;;;;;;;;;;;;;;;;;5096926;28;20019;-78
2022/08/07 00:28:30;;;;;;;;;;;;;;;;;;5096759;28;20344;-77
2022/08/07 00:30:57;;;;;;;;;;;;;;;;;;5096040;28;20410;-78
2022/08/07 00:33:27;;;;;;;;;;;;;;;;;;5095749;28;20343;-78
2022/08/07 00:35:53;;;;;;;;;;;;;;;;;;5095829;28;20394;-77
2022/08/07 00:38:19;;;;;;;;;;;;;;;;;;5095893;28;20465;-78
2022/08/07 00:40:46;;;;;;;;;;;;;;;;;;5095504;28;19927;-76
2022/08/07 00:43:13;;;;;;;;;;;;;;;;;;5095830;28;20393;-77
2022/08/07 00:45:40;;;;;;;;;;;;;;;;;;5096061;28;19924;-79
2022/08/07 00:48:06;;;;;;;;;;;;;;;;;;5095895;28;19928;-77
2022/08/07 00:50:34;;;;;;;;;;;;;;;;;;5095036;28;20378;-77
2022/08/07 00:53:01;;;;;;;;;;;;;;;;;;5095634;28;20031;-77
2022/08/07 00:55:28;;;;;;;;;;;;;;;;;;5095562;28;20400;-77
2022/08/07 00:57:54;;;;;;;;;;;;;;;;;;5095800;28;19966;-78
2022/08/07 01:00:21;;;;;;;;;;;;;;;;;;5095283;28;19924;-77
2022/08/07 01:02:48;;;;;;;;;;;;;;;;;;5095204;28;19928;-79
2022/08/07 01:05:15;;;;;;;;;;;;;;;;;;5095125;28;20034;-78
2022/08/07 01:07:43;;;;;;;;;;;;;;;;;;5095216;28;20019;-79
2022/08/07 01:10:10;;;;;;;;;;;;;;;;;;5094916;28;19930;-77
2022/08/07 01:12:37;;;;;;;;;;;;;;;;;;5094995;28;19928;-79
2022/08/07 01:15:03;;;;;;;;;;;;;;;;;;5095218;28;19972;-77
2022/08/07 01:17:30;;;;;;;;;;;;;;;;;;5095048;28;20459;-77
2022/08/07 01:20:01;;;;;;;;;;;;;;;;;;5094990;28;20023;-78
2022/08/07 01:22:29;;;;;;;;;;;;;;;;;;5094917;28;19924;-77
2022/08/07 01:24:56;;;;;;;;;;;;;;;;;;5095016;28;19924;-78
2022/08/07 01:27:23;;;;;;;;;;;;;;;;;;5095237;28;20011;-79
2022/08/07 01:29:50;;;;;;;;;;;;;;;;;;5095074;28;19924;-78
2022/08/07 01:32:17;;;;;;;;;;;;;;;;;;5094934;28;20011;-78
2022/08/07 01:34:44;;;;;;;;;;;;;;;;;;5093684;28;19930;-78
2022/08/07 01:37:12;;;;;;;;;;;;;;;;;;5094866;28;20008;-78
2022/08/07 01:39:40;;;;;;;;;;;;;;;;;;5094573;28;19924;-78
2022/08/07 01:42:07;;;;;;;;;;;;;;;;;;5095097;28;19928;-78
2022/08/07 01:44:33;;;;;;;;;;;;;;;;;;5095011;28;19936;-77
2022/08/07 01:47:00;;;;;;;;;;;;;;;;;;5094600;28;20362;-77
2022/08/07 01:49:26;;;;;;;;;;;;;;;;;;5093957;28;19934;-78
2022/08/07 01:51:53;;;;;;;;;;;;;;;;;;5094731;28;20363;-77
2022/08/07 01:54:20;;;;;;;;;;;;;;;;;;5094425;28;20010;-79
2022/08/07 01:56:51;;;;;;;;;;;;;;;;;;5094538;28;20461;-78
2022/08/07 01:59:22;;;;;;;;;;;;;;;;;;5094624;28;19924;-78
2022/08/07 02:01:57;;;;;;;;;;;;;;;;;;5077820;28;19931;-78
2022/08/07 02:04:25;;;;;;;;;;;;;;;;;;5073920;28;19998;-78
2022/08/07 02:06:52;;;;;;;;;;;;;;;;;;5074106;28;19931;-78
2022/08/07 02:09:20;;;;;;;;;;;;;;;;;;5074020;28;19924;-77
2022/08/07 02:11:49;;;;;;;;;;;;;;;;;;5074097;28;19928;-77
2022/08/07 02:14:17;;;;;;;;;;;;;;;;;;5073735;28;19933;-78
2022/08/07 02:16:44;;;;;;;;;;;;;;;;;;5076378;28;20011;-77
2022/08/07 02:19:13;;;;;;;;;;;;;;;;;;5074355;28;20015;-78
2022/08/07 02:21:40;;;;;;;;;;;;;;;;;;5073722;28;20023;-78
2022/08/07 02:24:07;;;;;;;;;;;;;;;;;;5073642;28;20022;-78
2022/08/07 02:26:34;;;;;;;;;;;;;;;;;;5073723;28;20027;-78
2022/08/07 02:29:00;;;;;;;;;;;;;;;;;;5073264;28;20012;-79
2022/08/07 02:31:29;;;;;;;;;;;;;;;;;;5073769;28;19963;-78
2022/08/07 02:33:56;;;;;;;;;;;;;;;;;;5072964;28;20007;-79
2022/08/07 02:36:23;;;;;;;;;;;;;;;;;;5073336;28;19924;-78
2022/08/07 02:38:52;;;;;;;;;;;;;;;;;;5073852;28;19931;-79
2022/08/07 02:41:18;;;;;;;;;;;;;;;;;;5075914;28;19955;-80
2022/08/07 02:43:45;;;;;;;;;;;;;;;;;;5075095;28;20015;-79
2022/08/07 02:46:12;;;;;;;;;;;;;;;;;;5075636;28;19925;-79
2022/08/07 02:48:40;;;;;;;;;;;;;;;;;;5075380;28;19947;-79
2022/08/07 02:51:07;;;;;;;;;;;;;;;;;;5075501;28;20017;-78
2022/08/07 02:53:35;;;;;;;;;;;;;;;;;;5076434;28;19968;-79
2022/08/07 02:56:02;;;;;;;;;;;;;;;;;;5076805;28;19970;-77
2022/08/07 02:58:30;;;;;;;;;;;;;;;;;;5076183;28;19929;-79
2022/08/07 03:00:57;;;;;;;;;;;;;;;;;;5085116;28;20014;-80
2022/08/07 03:03:26;;;;;;;;;;;;;;;;;;5096928;28;19987;-80
2022/08/07 03:05:56;;;;;;;;;;;;;;;;;;5097031;28;20019;-78
2022/08/07 03:08:22;;;;;;;;;;;;;;;;;;5096869;28;19924;-79
2022/08/07 03:10:49;;;;;;;;;;;;;;;;;;5096619;28;20027;-78
2022/08/07 03:13:16;;;;;;;;;;;;;;;;;;5097346;28;20014;-79
2022/08/07 03:15:43;;;;;;;;;;;;;;;;;;5096439;28;19982;-78
2022/08/07 03:18:10;;;;;;;;;;;;;;;;;;5095725;28;19971;-79
2022/08/07 03:20:37;;;;;;;;;;;;;;;;;;5095814;28;20018;-78
2022/08/07 03:23:05;;;;;;;;;;;;;;;;;;5096230;28;19925;-78
2022/08/07 03:25:32;;;;;;;;;;;;;;;;;;5096248;28;20014;-78
2022/08/07 03:27:59;;;;;;;;;;;;;;;;;;5096284;28;20022;-80
2022/08/07 03:30:26;;;;;;;;;;;;;;;;;;5095982;28;19924;-80
2022/08/07 03:32:53;;;;;;;;;;;;;;;;;;5096409;28;20283;-80
2022/08/07 03:35:22;;;;;;;;;;;;;;;;;;5144500;22;19924;-66
2022/08/07 03:37:52;;;;;;;;;;;;;;;;;;5113310;28;19923;-68
2022/08/07 03:40:21;;;;;;;;;;;;;;;;;;5113297;28;19927;-67
2022/08/07 03:42:48;;;;;;;;;;;;;;;;;;5105505;28;19924;-67
2022/08/07 03:45:15;;;;;;;;;;;;;;;;;;5092542;28;20281;-67
2022/08/07 03:47:42;;;;;;;;;;;;;;;;;;5092559;28;19925;-67
2022/08/07 03:50:08;;;;;;;;;;;;;;;;;;5092092;28;19924;-68
2022/08/07 03:52:36;;;;;;;;;;;;;;;;;;5092351;28;20412;-67
2022/08/07 03:55:03;;;;;;;;;;;;;;;;;;5092560;28;20346;-68
2022/08/07 03:57:32;;;;;;;;;;;;;;;;;;5094363;28;19924;-68
2022/08/07 03:59:59;;;;;;;;;;;;;;;;;;5096282;28;19924;-67
2022/08/07 04:02:25;;;;;;;;;;;;;;;;;;5096661;28;20372;-68
2022/08/07 04:04:52;;;;;;;;;;;;;;;;;;5096418;28;20380;-67
2022/08/07 04:07:19;;;;;;;;;;;;;;;;;;5096456;28;19931;-69
2022/08/07 04:09:46;;;;;;;;;;;;;;;;;;5096288;28;19981;-67
2022/08/07 04:12:13;;;;;;;;;;;;;;;;;;5096654;28;19931;-69
2022/08/07 04:14:42;;;;;;;;;;;;;;;;;;5096534;28;19970;-68
2022/08/07 04:17:09;;;;;;;;;;;;;;;;;;5096372;28;20207;-67
2022/08/07 04:19:36;;;;;;;;;;;;;;;;;;5095678;28;19993;-67
2022/08/07 04:22:03;;;;;;;;;;;;;;;;;;5096488;28;20351;-67
2022/08/07 04:24:30;;;;;;;;;;;;;;;;;;5096071;28;20411;-67
2022/08/07 04:26:58;;;;;;;;;;;;;;;;;;5096138;28;20373;-67
2022/08/07 04:29:25;;;;;;;;;;;;;;;;;;5095810;28;19923;-69
2022/08/07 04:31:53;;;;;;;;;;;;;;;;;;5096126;28;19984;-67
2022/08/07 04:34:21;;;;;;;;;;;;;;;;;;5095880;28;19924;-68
2022/08/07 04:36:48;;;;;;;;;;;;;;;;;;5095991;28;19995;-67
2022/08/07 04:39:14;;;;;;;;;;;;;;;;;;5095846;28;19928;-67
2022/08/07 04:41:41;;;;;;;;;;;;;;;;;;5095846;28;19977;-68
2022/08/07 04:44:08;;;;;;;;;;;;;;;;;;5095616;28;19931;-68
2022/08/07 04:46:38;;;;;;;;;;;;;;;;;;5095475;28;20010;-67
2022/08/07 04:49:14;;;;;;;;;;;;;;;;;;5095407;28;19928;-67
2022/08/07 04:51:46;;;;;;;;;;;;;;;;;;5095683;28;20358;-66
2022/08/07 04:54:17;;;;;;;;;;;;;;;;;;5095604;28;19932;-67
2022/08/07 04:56:46;;;;;;;;;;;;;;;;;;5095669;28;19977;-67
2022/08/07 04:59:14;;;;;;;;;;;;;;;;;;5095717;28;19928;-67
2022/08/07 05:01:44;;;;;;;;;;;;;;;;;;5080010;28;19978;-68
2022/08/07 05:04:14;;;;;;;;;;;;;;;;;;5075064;28;19929;-68
2022/08/07 05:06:44;;;;;;;;;;;;;;;;;;5074955;28;19925;-68
2022/08/07 05:09:15;;;;;;;;;;;;;;;;;;5074591;28;19931;-68
2022/08/07 05:11:45;;;;;;;;;;;;;;;;;;5074821;28;19932;-68
2022/08/07 05:14:13;;;;;;;;;;;;;;;;;;5074737;28;19931;-68
2022/08/07 05:16:41;;;;;;;;;;;;;;;;;;5074813;28;19954;-67
2022/08/07 05:19:09;;;;;;;;;;;;;;;;;;5074581;28;19924;-67
2022/08/07 05:21:37;;;;;;;;;;;;;;;;;;5074871;28;19925;-68
2022/08/07 05:24:06;;;;;;;;;;;;;;;;;;5074742;28;19925;-67
2022/08/07 05:26:33;;;;;;;;;;;;;;;;;;5074798;28;19932;-67
2022/08/07 05:29:02;;;;;;;;;;;;;;;;;;5074458;28;19925;-69
2022/08/07 05:31:32;;;;;;;;;;;;;;;;;;5074755;28;19925;-68
2022/08/07 05:33:59;;;;;;;;;;;;;;;;;;5074566;28;19925;-68
2022/08/07 05:36:26;;;;;;;;;;;;;;;;;;5074500;28;20335;-68
2022/08/07 05:38:55;;;;;;;;;;;;;;;;;;5074473;28;19928;-68
2022/08/07 05:41:22;;;;;;;;;;;;;;;;;;5074072;28;19932;-67
2022/08/07 05:43:49;;;;;;;;;;;;;;;;;;5074228;28;19924;-67
2022/08/07 05:46:16;;;;;;;;;;;;;;;;;;5074398;28;19925;-67
2022/08/07 05:48:44;;;;;;;;;;;;;;;;;;5074332;28;19924;-68
2022/08/07 05:51:10;;;;;;;;;;;;;;;;;;5074095;28;20438;-68
2022/08/07 05:53:37;;;;;;;;;;;;;;;;;;5074112;28;19928;-67
2022/08/07 05:56:06;;;;;;;;;;;;;;;;;;5074195;28;19964;-68
2022/08/07 05:58:33;;;;;;;;;;;;;;;;;;5073965;28;19925;-68
2022/08/07 06:01:00;;;;;;;;;;;;;;;;;;5074518;28;20377;-67
2022/08/07 06:03:27;;;;;;;;;;;;;;;;;;5073909;28;20001;-65
2022/08/07 06:05:54;;;;;;;;;;;;;;;;;;5074125;28;20339;-69
2022/08/07 06:08:21;;;;;;;;;;;;;;;;;;5074189;28;19970;-68
2022/08/07 06:10:47;;;;;;;;;;;;;;;;;;5073943;28;19929;-68
2022/08/07 06:13:15;;;;;;;;;;;;;;;;;;5073767;28;20417;-66
2022/08/07 06:15:43;;;;;;;;;;;;;;;;;;5073882;28;20278;-68
2022/08/07 06:18:11;;;;;;;;;;;;;;;;;;5073811;28;19928;-67
2022/08/07 06:20:38;;;;;;;;;;;;;;;;;;5073310;28;19929;-65
2022/08/07 06:23:05;;;;;;;;;;;;;;;;;;5073834;28;19932;-68
2022/08/07 06:25:32;;;;;;;;;;;;;;;;;;5073913;28;20430;-68
2022/08/07 06:28:02;;;;;;;;;;;;;;;;;;5073690;28;19925;-68
2022/08/07 06:30:30;;;;;;;;;;;;;;;;;;5073765;28;20335;-67
2022/08/07 06:32:56;;;;;;;;;;;;;;;;;;5073488;28;19982;-68
2022/08/07 06:35:23;;;;;;;;;;;;;;;;;;5073456;28;19924;-68
2022/08/07 06:37:49;;;;;;;;;;;;;;;;;;5073528;28;20385;-68
2022/08/07 06:40:16;;;;;;;;;;;;;;;;;;5073307;28;19931;-67
2022/08/07 06:42:45;;;;;;;;;;;;;;;;;;5073250;28;19990;-67
2022/08/07 06:45:13;;;;;;;;;;;;;;;;;;5073372;28;19929;-68
2022/08/07 06:47:41;;;;;;;;;;;;;;;;;;5073622;28;19992;-68
2022/08/07 06:50:09;;;;;;;;;;;;;;;;;;5073923;28;19931;-67
2022/08/07 06:52:36;;;;;;;;;;;;;;;;;;5073293;28;19924;-66
2022/08/07 06:55:03;;;;;;;;;;;;;;;;;;5073897;28;20022;-67
2022/08/07 06:57:31;;;;;;;;;;;;;;;;;;5073065;28;19928;-68
2022/08/07 06:59:59;;;;;;;;;;;;;;;;;;5072898;28;20022;-68
2022/08/07 07:02:26;;;;;;;;;;;;;;;;;;5072811;28;19925;-67
2022/08/07 07:04:54;;;;;;;;;;;;;;;;;;5073159;28;20397;-67
2022/08/07 07:07:20;;;;;;;;;;;;;;;;;;5073049;28;19986;-67
2022/08/07 07:09:48;;;;;;;;;;;;;;;;;;5073299;28;19925;-68
2022/08/07 07:12:19;;;;;;;;;;;;;;;;;;5072851;28;19925;-68
2022/08/07 07:14:49;;;;;;;;;;;;;;;;;;5073076;28;19982;-68
2022/08/07 07:17:17;;;;;;;;;;;;;;;;;;5073023;28;19924;-69
2022/08/07 07:19:45;;;;;;;;;;;;;;;;;;5072866;28;19932;-66
2022/08/07 07:22:15;;;;;;;;;;;;;;;;;;5072825;28;19928;-66
2022/08/07 07:24:42;;;;;;;;;;;;;;;;;;5072524;28;20005;-67
2022/08/07 07:27:09;;;;;;;;;;;;;;;;;;5072447;28;19929;-65
2022/08/07 07:29:37;;;;;;;;;;;;;;;;;;5072941;28;19955;-66
2022/08/07 07:32:06;;;;;;;;;;;;;;;;;;5071785;28;19925;-66
2022/08/07 07:34:34;;;;;;;;;;;;;;;;;;5072595;28;19931;-67
2022/08/07 07:37:01;;;;;;;;;;;;;;;;;;5072318;28;19970;-66
2022/08/07 07:39:30;;;;;;;;;;;;;;;;;;5072426;28;19929;-66
2022/08/07 07:41:57;;;;;;;;;;;;;;;;;;5072400;28;19932;-66
2022/08/07 07:44:24;;;;;;;;;;;;;;;;;;5072418;28;19928;-66
2022/08/07 07:46:51;;;;;;;;;;;;;;;;;;5072729;28;19935;-66
2022/08/07 07:49:19;;;;;;;;;;;;;;;;;;5071998;28;19928;-66
2022/08/07 07:51:47;;;;;;;;;;;;;;;;;;5072530;28;19924;-66
2022/08/07 07:54:14;;;;;;;;;;;;;;;;;;5072105;28;19928;-66
2022/08/07 07:56:43;;;;;;;;;;;;;;;;;;5072253;28;19948;-67
2022/08/07 07:59:10;;;;;;;;;;;;;;;;;;5072128;28;20293;-65
2022/08/07 08:01:38;;;;;;;;;;;;;;;;;;5086670;28;20376;-66
2022/08/07 08:04:06;;;;;;;;;;;;;;;;;;5092031;28;19977;-66
2022/08/07 08:06:34;;;;;;;;;;;;;;;;;;5092302;28;19985;-66
2022/08/07 08:09:05;;;;;;;;;;;;;;;;;;5092745;28;19931;-67
2022/08/07 08:11:32;;;;;;;;;;;;;;;;;;5092303;28;20056;-66
2022/08/07 08:14:00;;;;;;;;;;;;;;;;;;5092572;28;19924;-67
2022/08/07 08:16:29;;;;;;;;;;;;;;;;;;5092569;28;19978;-67
2022/08/07 08:18:56;;;;;;;;;;;;;;;;;;5092396;28;19924;-66
2022/08/07 08:27:07;;;;;;;;;;;;;;;;;;5092084;28;19935;-66
2022/08/07 08:29:36;;;;;;;;;;;;;;;;;;5091642;28;19924;-66
2022/08/07 08:32:04;;;;;;;;;;;;;;;;;;5091761;28;19931;-67
2022/08/07 08:34:31;;;;;;;;;;;;;;;;;;5091792;28;19932;-67
2022/08/07 08:36:58;;;;;;;;;;;;;;;;;;5092257;28;19942;-66
2022/08/07 08:39:25;;;;;;;;;;;;;;;;;;5091737;28;19932;-67
2022/08/07 08:41:57;;;;;;;;;;;;;;;;;;5091866;28;19928;-66
2022/08/07 08:44:25;;;;;;;;;;;;;;;;;;5094767;28;19924;-66
2022/08/07 08:46:56;;;;;;;;;;;;;;;;;;5096203;28;20391;-66
2022/08/07 08:49:25;;;;;;;;;;;;;;;;;;5095409;28;19928;-66
2022/08/07 08:51:57;;;;;;;;;;;;;;;;;;5095678;28;20335;-66
2022/08/07 08:54:26;;;;;;;;;;;;;;;;;;5095095;28;20353;-66
2022/08/07 08:56:53;;;;;;;;;;;;;;;;;;5095535;28;19978;-66
2022/08/07 08:59:24;;;;;;;;;;;;;;;;;;5094973;28;19925;-67
2022/08/07 09:01:53;;;;;;;;;;;;;;;;;;5078569;28;19924;-66
2022/08/07 09:04:27;;;;;;;;;;;;;;;;;;5074992;28;19978;-66
2022/08/07 09:06:59;;;;;;;;;;;;;;;;;;5074988;28;20381;-66
2022/08/07 09:09:35;;;;;;;;;;;;;;;;;;5074655;28;19999;-66
2022/08/07 09:12:05;;;;;;;;;;;;;;;;;;5074869;28;19924;-67
2022/08/07 09:14:36;;;;;;;;;;;;;;;;;;5075335;28;19925;-66
2022/08/07 09:17:07;;;;;;;;;;;;;;;;;;5075119;28;19924;-66
2022/08/07 09:19:46;;;;;;;;;;;;;;;;;;5074562;28;19924;-66
2022/08/07 09:22:18;;;;;;;;;;;;;;;;;;5074675;28;19928;-66
2022/08/07 09:24:47;;;;;;;;;;;;;;;;;;5074527;28;19931;-66
2022/08/07 09:27:19;;;;;;;;;;;;;;;;;;5074590;28;19978;-66
2022/08/07 09:29:54;;;;;;;;;;;;;;;;;;5074063;28;19924;-66
2022/08/07 09:32:25;;;;;;;;;;;;;;;;;;5074557;28;19969;-66
2022/08/07 09:34:58;;;;;;;;;;;;;;;;;;5090766;22;19926;-64
2022/08/07 09:37:28;;;;;;;;;;;;;;;;;;5115068;28;19924;-64
2022/08/07 09:40:01;;;;;;;;;;;;;;;;;;5114614;28;19924;-65
2022/08/07 09:42:33;;;;;;;;;;;;;;;;;;5114735;28;19924;-64
2022/08/07 09:45:06;;;;;;;;;;;;;;;;;;5114673;28;19927;-65
2022/08/07 09:47:37;;;;;;;;;;;;;;;;;;5114799;28;19971;-65
2022/08/07 09:50:09;;;;;;;;;;;;;;;;;;5114524;28;19928;-65
2022/08/07 09:52:40;;;;;;;;;;;;;;;;;;5114588;28;19982;-65
2022/08/07 09:55:09;;;;;;;;;;;;;;;;;;5113435;28;19927;-68
2022/08/07 09:57:49;;;;;;;;;;;;;;;;;;5115027;28;19924;-64
2022/08/07 10:00:19;;;;;;;;;;;;;;;;;;5110907;28;20288;-64
2022/08/07 10:02:55;;;;;;;;;;;;;;;;;;5094012;28;20388;-64
2022/08/07 10:05:30;;;;;;;;;;;;;;;;;;5093904;28;20388;-66
2022/08/07 10:08:03;;;;;;;;;;;;;;;;;;5094315;28;20411;-67
2022/08/07 10:10:33;;;;;;;;;;;;;;;;;;5094084;28;20380;-65
2022/08/07 10:13:11;;;;;;;;;;;;;;;;;;5094072;28;19985;-65
2022/08/07 10:15:49;;;;;;;;;;;;;;;;;;5093922;28;20393;-65
2022/08/07 10:18:49;;;;;;;;;;;;;;;;;;5093773;28;19924;-67
2022/08/07 10:21:23;;;;;;;;;;;;;;;;;;5011563;28;20329;-67
2022/08/07 10:23:56;;;;;;;;;;;;;;;;;;5011352;28;19926;-65
2022/08/07 10:26:29;;;;;;;;;;;;;;;;;;5054608;28;19931;-64
2022/08/07 10:29:01;;;;;;;;;;;;;;;;;;5093768;28;20261;-63
2022/08/07 10:31:42;;;;;;;;;;;;;;;;;;5093706;28;19924;-64
2022/08/07 10:34:19;;;;;;;;;;;;;;;;;;5090162;28;19923;-65
2022/08/07 10:36:59;;;;;;;;;;;;;;;;;;5093142;28;20320;-65
2022/08/07 10:39:33;;;;;;;;;;;;;;;;;;5093255;28;20269;-65
2022/08/07 10:42:07;;;;;;;;;;;;;;;;;;5093453;28;19932;-66
2022/08/07 10:44:39;;;;;;;;;;;;;;;;;;5093408;28;20351;-65
2022/08/07 10:47:13;;;;;;;;;;;;;;;;;;5093576;28;20277;-64
2022/08/07 10:49:41;;;;;;;;;;;;;;;;;;5093029;28;20315;-65
2022/08/07 10:52:13;;;;;;;;;;;;;;;;;;5093225;28;20392;-64
2022/08/07 10:54:42;;;;;;;;;;;;;;;;;;5093270;28;19925;-64
2022/08/07 10:57:11;;;;;;;;;;;;;;;;;;5093351;28;19924;-64
2022/08/07 10:59:47;;;;;;;;;;;;;;;;;;5092961;28;20005;-65
2022/08/07 11:02:16;;;;;;;;;;;;;;;;;;5073475;28;19935;-65
2022/08/07 11:04:52;;;;;;;;;;;;;;;;;;5072948;28;20023;-65
2022/08/07 11:07:25;;;;;;;;;;;;;;;;;;5072650;28;20348;-65
2022/08/07 11:09:54;;;;;;;;;;;;;;;;;;5072557;28;20008;-66
2022/08/07 11:12:23;;;;;;;;;;;;;;;;;;5072787;28;20340;-65
2022/08/07 11:14:53;;;;;;;;;;;;;;;;;;5072804;28;19948;-66
2022/08/07 11:17:23;;;;;;;;;;;;;;;;;;5073052;28;19932;-64
2022/08/07 11:19:50;;;;;;;;;;;;;;;;;;5072407;28;19932;-64
2022/08/07 11:22:19;;;;;;;;;;;;;;;;;;5072736;28;20019;-64
2022/08/07 11:24:51;;;;;;;;;;;;;;;;;;5072976;28;19926;-64
2022/08/07 11:27:21;;;;;;;;;;;;;;;;;;5073153;28;19974;-67
2022/08/07 11:29:51;;;;;;;;;;;;;;;;;;5072562;28;19924;-64
2022/08/07 11:32:20;;;;;;;;;;;;;;;;;;5073552;28;19931;-65
2022/08/07 11:34:49;;;;;;;;;;;;;;;;;;5072680;28;19974;-65
2022/08/07 11:37:23;;;;;;;;;;;;;;;;;;5072762;28;20389;-64
2022/08/07 11:40:01;;;;;;;;;;;;;;;;;;5073398;28;19925;-65
2022/08/07 11:42:33;;;;;;;;;;;;;;;;;;5073073;28;19966;-64
2022/08/07 11:45:05;;;;;;;;;;;;;;;;;;5072450;28;19924;-64
2022/08/07 11:47:44;;;;;;;;;;;;;;;;;;5072573;28;19928;-63
2022/08/07 11:50:16;;;;;;;;;;;;;;;;;;5072353;28;19924;-66
2022/08/07 11:52:50;;;;;;;;;;;;;;;;;;5072793;28;19931;-64
2022/08/07 11:55:34;;;;;;;;;;;;;;;;;;5072774;28;19974;-65
2022/08/07 11:58:05;;;;;;;;;;;;;;;;;;5072569;28;19925;-65
2022/08/07 12:00:38;;;;;;;;;;;;;;;;;;5077305;28;19932;-64
2022/08/07 12:03:25;;;;;;;;;;;;;;;;;;5092716;28;19985;-63
2022/08/07 12:05:58;;;;;;;;;;;;;;;;;;5092334;28;20022;-65
2022/08/07 12:08:28;;;;;;;;;;;;;;;;;;5092337;28;19928;-64
2022/08/07 12:10:59;;;;;;;;;;;;;;;;;;5092153;28;19924;-64
2022/08/07 12:13:27;;;;;;;;;;;;;;;;;;5092730;28;19924;-67
2022/08/07 12:15:56;;;;;;;;;;;;;;;;;;5092376;28;19979;-66
2022/08/07 12:18:25;;;;;;;;;;;;;;;;;;5094133;28;19959;-65
2022/08/07 12:20:58;;;;;;;;;;;;;;;;;;5095836;28;19924;-66
2022/08/07 12:23:35;;;;;;;;;;;;;;;;;;5096264;28;19928;-66
2022/08/07 12:26:05;;;;;;;;;;;;;;;;;;5096027;28;19928;-65
2022/08/07 12:28:36;;;;;;;;;;;;;;;;;;5096201;28;19982;-68
2022/08/07 12:31:05;;;;;;;;;;;;;;;;;;5096264;28;20391;-65
2022/08/07 12:33:32;;;;;;;;;;;;;;;;;;5096036;28;20320;-63
2022/08/07 12:36:00;;;;;;;;;;;;;;;;;;5096260;28;20365;-64
2022/08/07 12:38:27;;;;;;;;;;;;;;;;;;5095982;28;20385;-64
2022/08/07 12:40:55;;;;;;;;;;;;;;;;;;5096048;28;20403;-63
2022/08/07 12:43:27;;;;;;;;;;;;;;;;;;5095899;28;20011;-65
2022/08/07 12:45:56;;;;;;;;;;;;;;;;;;5095766;28;19931;-64
2022/08/07 12:48:27;;;;;;;;;;;;;;;;;;5096087;28;19971;-64
2022/08/07 12:50:59;;;;;;;;;;;;;;;;;;5095896;28;19932;-63
2022/08/07 12:53:29;;;;;;;;;;;;;;;;;;5095955;28;20014;-65
2022/08/07 12:55:58;;;;;;;;;;;;;;;;;;5095508;28;20331;-65
2022/08/07 12:58:27;;;;;;;;;;;;;;;;;;5095767;28;19927;-65
2022/08/07 13:01:00;;;;;;;;;;;;;;;;;;5095819;28;19924;-66
2022/08/07 13:03:35;;;;;;;;;;;;;;;;;;5096047;28;19971;-65
2022/08/07 13:06:09;;;;;;;;;;;;;;;;;;5095634;28;20014;-65
2022/08/07 13:08:40;;;;;;;;;;;;;;;;;;5095633;28;19924;-65
2022/08/07 13:11:10;;;;;;;;;;;;;;;;;;5095730;28;20011;-65
2022/08/07 13:13:44;;;;;;;;;;;;;;;;;;5095682;28;19924;-66
2022/08/07 13:16:13;;;;;;;;;;;;;;;;;;5095399;28;19924;-65
2022/08/07 13:18:45;;;;;;;;;;;;;;;;;;5095841;28;19928;-65
2022/08/07 13:21:14;;;;;;;;;;;;;;;;;;5095390;28;19928;-66
2022/08/07 13:23:45;;;;;;;;;;;;;;;;;;5095584;28;19928;-66
2022/08/07 13:26:14;;;;;;;;;;;;;;;;;;5095340;28;19924;-66
2022/08/07 13:28:45;;;;;;;;;;;;;;;;;;5095312;28;20322;-65
2022/08/07 13:31:13;;;;;;;;;;;;;;;;;;5094950;28;19971;-64
2022/08/07 13:33:47;;;;;;;;;;;;;;;;;;5094901;28;20388;-66
2022/08/07 13:36:16;;;;;;;;;;;;;;;;;;5094956;28;19977;-65
2022/08/07 13:38:47;;;;;;;;;;;;;;;;;;5094942;28;20020;-66
2022/08/07 13:41:21;;;;;;;;;;;;;;;;;;5094853;28;19928;-64
2022/08/07 13:43:50;;;;;;;;;;;;;;;;;;5094931;28;19981;-66
2022/08/07 13:46:18;;;;;;;;;;;;;;;;;;5094698;28;19977;-65
2022/08/07 13:48:46;;;;;;;;;;;;;;;;;;5094557;28;19924;-64
2022/08/07 13:51:13;;;;;;;;;;;;;;;;;;5094451;28;20423;-64
2022/08/07 13:53:43;;;;;;;;;;;;;;;;;;5094774;28;20392;-64
2022/08/07 13:56:10;;;;;;;;;;;;;;;;;;5094255;28;20026;-64
2022/08/07 14:01:24;;;;;;;;;;;;;;;;;;5081700;28;19931;-64
2022/08/07 14:03:52;;;;;;;;;;;;;;;;;;5073910;28;19932;-64
2022/08/07 14:06:19;;;;;;;;;;;;;;;;;;5073942;28;19932;-65
2022/08/07 14:08:47;;;;;;;;;;;;;;;;;;5074246;28;19981;-66
2022/08/07 14:11:15;;;;;;;;;;;;;;;;;;5073716;28;19966;-67
2022/08/07 14:13:43;;;;;;;;;;;;;;;;;;5074034;28;19928;-66
2022/08/07 14:16:15;;;;;;;;;;;;;;;;;;5073793;28;19947;-64
2022/08/07 14:18:47;;;;;;;;;;;;;;;;;;5073866;28;20011;-64
2022/08/07 14:21:15;;;;;;;;;;;;;;;;;;5073675;28;19948;-65
2022/08/07 14:23:44;;;;;;;;;;;;;;;;;;5073649;28;19932;-65
2022/08/07 14:26:13;;;;;;;;;;;;;;;;;;5073491;28;20301;-65
2022/08/07 14:28:41;;;;;;;;;;;;;;;;;;5073738;28;19925;-64
2022/08/07 14:31:08;;;;;;;;;;;;;;;;;;5073207;28;20336;-64
2022/08/07 14:33:35;;;;;;;;;;;;;;;;;;5073417;28;19924;-65
2022/08/07 14:36:04;;;;;;;;;;;;;;;;;;5073122;28;20297;-65
2022/08/07 14:38:31;;;;;;;;;;;;;;;;;;5073408;28;20031;-65
2022/08/07 14:41:00;;;;;;;;;;;;;;;;;;5072565;28;19931;-64
2022/08/07 14:43:28;;;;;;;;;;;;;;;;;;5073291;28;19970;-65
2022/08/07 14:45:56;;;;;;;;;;;;;;;;;;5073134;28;19928;-64
2022/08/07 14:48:25;;;;;;;;;;;;;;;;;;5073023;28;19947;-64
2022/08/07 14:50:53;;;;;;;;;;;;;;;;;;5072833;28;19942;-64
2022/08/07 14:53:22;;;;;;;;;;;;;;;;;;5072852;28;19924;-64
2022/08/07 14:55:49;;;;;;;;;;;;;;;;;;5073094;28;19924;-63
2022/08/07 14:58:17;;;;;;;;;;;;;;;;;;5072865;28;19931;-65
2022/08/07 15:00:47;;;;;;;;;;;;;;;;;;5079560;28;20205;-64
2022/08/07 15:03:14;;;;;;;;;;;;;;;;;;5093151;28;20494;-64
2022/08/07 15:05:42;;;;;;;;;;;;;;;;;;5092956;28;20381;-63
2022/08/07 15:08:10;;;;;;;;;;;;;;;;;;5092992;28;20289;-63
2022/08/07 15:10:40;;;;;;;;;;;;;;;;;;5092574;28;20049;-62
2022/08/07 15:13:10;;;;;;;;;;;;;;;;;;5092844;28;19928;-63
2022/08/07 15:15:40;;;;;;;;;;;;;;;;;;5093271;28;19935;-63
2022/08/07 15:18:10;;;;;;;;;;;;;;;;;;5092905;28;19928;-64
2022/08/07 15:20:38;;;;;;;;;;;;;;;;;;5092484;28;19977;-64
2022/08/07 15:23:12;;;;;;;;;;;;;;;;;;5093210;28;20399;-64
2022/08/07 15:25:44;;;;;;;;;;;;;;;;;;5092675;28;19928;-63
2022/08/07 15:28:11;;;;;;;;;;;;;;;;;;5092930;28;19977;-64
2022/08/07 15:30:38;;;;;;;;;;;;;;;;;;5092595;28;19978;-63
2022/08/07 15:33:06;;;;;;;;;;;;;;;;;;5092648;28;19928;-63
2022/08/07 15:35:33;;;;;;;;;;;;;;;;;;5092751;28;19924;-63
2022/08/07 15:38:00;;;;;;;;;;;;;;;;;;5092675;28;19931;-64
2022/08/07 15:40:28;;;;;;;;;;;;;;;;;;5092293;28;19943;-67
2022/08/07 15:42:59;;;;;;;;;;;;;;;;;;5092225;28;19924;-67
2022/08/07 15:45:28;;;;;;;;;;;;;;;;;;5092395;28;19924;-64
2022/08/07 15:47:57;;;;;;;;;;;;;;;;;;5092209;28;20015;-64
2022/08/07 15:50:27;;;;;;;;;;;;;;;;;;5092359;28;20046;-64
2022/08/07 15:52:58;;;;;;;;;;;;;;;;;;5091422;28;19924;-65
2022/08/07 15:55:25;;;;;;;;;;;;;;;;;;5092267;28;20338;-64
2022/08/07 15:57:53;;;;;;;;;;;;;;;;;;5092179;28;19928;-64
2022/08/07 16:00:24;;;;;;;;;;;;;;;;;;5091856;28;19924;-64
2022/08/07 16:02:54;;;;;;;;;;;;;;;;;;5092122;28;19924;-63
2022/08/07 16:05:22;;;;;;;;;;;;;;;;;;5092136;28;19925;-63
2022/08/07 16:07:51;;;;;;;;;;;;;;;;;;5091820;28;19928;-63
2022/08/07 16:10:18;;;;;;;;;;;;;;;;;;5091872;28;19935;-65
2022/08/07 16:12:51;;;;;;;;;;;;;;;;;;5091972;28;19928;-64
2022/08/07 16:15:29;;;;;;;;;;;;;;;;;;5092152;28;20286;-64
2022/08/07 16:18:00;;;;;;;;;;;;;;;;;;5092154;28;19981;-64
2022/08/07 16:20:38;;;;;;;;;;;;;;;;;;5091884;28;19928;-64
2022/08/07 16:23:19;;;;;;;;;;;;;;;;;;5092077;28;19924;-65
2022/08/07 16:26:01;;;;;;;;;;;;;;;;;;5089388;28;20381;-63
2022/08/07 16:28:42;;;;;;;;;;;;;;;;;;5091744;28;19982;-65
2022/08/07 16:31:15;;;;;;;;;;;;;;;;;;5091688;28;19924;-64
2022/08/07 16:33:43;;;;;;;;;;;;;;;;;;5091932;28;20407;-64
2022/08/07 16:36:23;;;;;;;;;;;;;;;;;;5091875;28;20370;-65
2022/08/07 16:38:58;;;;;;;;;;;;;;;;;;5091884;28;19925;-63
2022/08/07 16:41:35;;;;;;;;;;;;;;;;;;5091958;28;19925;-66
2022/08/07 16:44:17;;;;;;;;;;;;;;;;;;5091567;28;19931;-63
2022/08/07 16:46:56;;;;;;;;;;;;;;;;;;5091811;28;19954;-65
2022/08/07 16:49:39;;;;;;;;;;;;;;;;;;5091762;28;20001;-64
2022/08/07 16:52:13;;;;;;;;;;;;;;;;;;5072965;28;23207;-63
2022/08/07 16:54:51;;;;;;;;;;;;;;;;;;5091679;28;19924;-66
2022/08/07 16:57:28;;;;;;;;;;;;;;;;;;5091720;28;19990;-63
2022/08/07 17:00:01;;;;;;;;;;;;;;;;;;5090859;28;19924;-65
2022/08/07 17:02:40;;;;;;;;;;;;;;;;;;5071403;28;19928;-64
2022/08/07 17:05:10;;;;;;;;;;;;;;;;;;5074294;28;20376;-64
2022/08/07 17:07:44;;;;;;;;;;;;;;;;;;5074827;28;19947;-64
2022/08/07 17:10:15;;;;;;;;;;;;;;;;;;5074491;28;19924;-65